Time;durP1;ratioP1;P1;durP2;ratioP2;P2;SDS_P1;SDS_P2;PMS_P1;PMS_P2;Temp;Humidity;BMP_temperature;BMP_pressure;BME280_temperature;BME280_humidity;BME280_pressure;Samples;Min_cycle;Max_cycle;Signal;HPM_P1;HPM_P2
2021/05/22 00:00:26;;;;;;;2.83;2.27;;;12.90;97.30;;;;;;4975624;28;20523;-90
2021/05/22 00:02:51;;;;;;;5.10;2.40;;;12.90;97.30;;;;;;4975257;28;20177;-90
2021/05/22 00:05:19;;;;;;;6.37;2.20;;;12.90;97.30;;;;;;4975439;28;20929;-90
2021/05/22 00:07:45;;;;;;;7.10;2.40;;;12.90;97.30;;;;;;4975202;28;20236;-90
2021/05/22 00:10:11;;;;;;;2.50;2.20;;;12.90;97.30;;;;;;4975361;28;20465;-89
2021/05/22 00:12:42;;;;;;;2.80;2.00;;;12.80;97.30;;;;;;4992737;28;20181;-90
2021/05/22 00:15:10;;;;;;;3.57;2.43;;;12.80;97.30;;;;;;4992661;28;20416;-89
2021/05/22 00:17:35;;;;;;;4.90;2.40;;;12.80;97.30;;;;;;4974573;28;20420;-91
2021/05/22 00:20:02;;;;;;;3.77;2.30;;;12.80;97.30;;;;;;4974035;28;20827;-89
2021/05/22 00:22:28;;;;;;;4.80;2.37;;;12.80;97.30;;;;;;4991838;28;20190;-89
2021/05/22 00:24:53;;;;;;;3.50;2.13;;;12.80;97.30;;;;;;4974796;28;20593;-90
2021/05/22 00:27:19;;;;;;;2.87;2.00;;;12.80;97.30;;;;;;4974566;28;20213;-90
2021/05/22 00:29:45;;;;;;;8.33;2.10;;;12.90;97.30;;;;;;4975574;28;20178;-90
2021/05/22 00:32:10;;;;;;;9.30;3.17;;;12.90;97.30;;;;;;4993506;28;20174;-89
2021/05/22 00:34:36;;;;;;;3.40;1.90;;;12.80;97.30;;;;;;4975848;28;20532;-90
2021/05/22 00:37:01;;;;;;;3.80;2.70;;;12.90;97.30;;;;;;4975713;28;20213;-90
2021/05/22 00:39:27;;;;;;;3.03;2.20;;;12.80;97.30;;;;;;4976120;28;20240;-90
2021/05/22 00:41:53;;;;;;;4.00;2.10;;;12.80;97.30;;;;;;4992162;28;20209;-91
2021/05/22 00:44:18;;;;;;;3.50;2.33;;;12.80;97.30;;;;;;4973715;28;20192;-90
2021/05/22 00:46:44;;;;;;;2.73;2.20;;;12.80;97.30;;;;;;4976158;28;20464;-90
2021/05/22 00:49:09;;;;;;;3.40;2.27;;;12.70;97.30;;;;;;4994509;28;20221;-91
2021/05/22 00:51:35;;;;;;;6.17;2.07;;;12.70;97.30;;;;;;4976777;28;20193;-90
2021/05/22 00:54:01;;;;;;;3.70;2.33;;;12.70;97.30;;;;;;4975816;28;20209;-91
2021/05/22 00:56:26;;;;;;;3.80;2.10;;;12.70;97.30;;;;;;4976459;28;20651;-90
2021/05/22 00:58:52;;;;;;;4.80;2.50;;;12.60;97.30;;;;;;4977006;28;20522;-89
2021/05/22 01:01:17;;;;;;;4.13;2.03;;;12.60;97.30;;;;;;4976707;28;20688;-90
2021/05/22 01:03:48;;;;;;;4.00;2.03;;;12.60;97.30;;;;;;4977466;28;20297;-90
2021/05/22 01:06:23;;;;;;;5.10;2.23;;;12.60;97.30;;;;;;4994931;28;20574;-90
2021/05/22 01:08:54;;;;;;;4.60;2.30;;;12.50;97.30;;;;;;4977709;28;20420;-90
2021/05/22 01:11:28;;;;;;;4.03;2.20;;;12.50;97.30;;;;;;4977775;28;20444;-89
2021/05/22 01:14:08;;;;;;;2.77;2.13;;;12.50;97.30;;;;;;4978323;28;20904;-90
2021/05/22 01:16:34;;;;;;;3.37;2.20;;;12.50;97.30;;;;;;4978665;28;20481;-89
2021/05/22 01:19:01;;;;;;;2.57;2.20;;;12.50;97.30;;;;;;4978520;28;20421;-90
2021/05/22 01:21:28;;;;;;;3.70;2.40;;;12.40;97.30;;;;;;4996025;28;20606;-90
2021/05/22 01:24:03;;;;;;;2.53;1.97;;;12.40;97.30;;;;;;4977741;28;20917;-91
2021/05/22 01:26:30;;;;;;;5.63;2.10;;;12.40;97.30;;;;;;4977152;28;20464;-90
2021/05/22 01:28:58;;;;;;;5.10;2.00;;;12.30;97.30;;;;;;4976228;28;20935;-90
2021/05/22 01:31:24;;;;;;;4.97;2.23;;;12.30;97.30;;;;;;4976143;28;20441;-91
2021/05/22 01:33:50;;;;;;;5.27;2.00;;;12.20;97.30;;;;;;4976156;28;20503;-90
2021/05/22 01:36:16;;;;;;;3.50;2.30;;;12.20;97.30;;;;;;4976514;28;20430;-89
2021/05/22 01:38:41;;;;;;;5.53;2.47;;;12.10;97.30;;;;;;4976594;28;20421;-91
2021/05/22 01:41:07;;;;;;;2.40;2.10;;;12.10;97.30;;;;;;4976224;28;20202;-90
2021/05/22 01:43:34;;;;;;;2.73;2.10;;;12.00;97.30;;;;;;4976805;28;20644;-89
2021/05/22 01:46:01;;;;;;;2.73;2.10;;;12.00;97.30;;;;;;4977722;28;20178;-90
2021/05/22 01:48:27;;;;;;;4.57;2.30;;;12.00;97.30;;;;;;4977612;28;20448;-91
2021/05/22 01:51:14;;;;;;;7.50;2.60;;;12.00;97.30;;;;;;4978438;28;20437;-90
2021/05/22 01:53:41;;;;;;;4.03;1.90;;;11.90;97.30;;;;;;4977452;28;20429;-90
2021/05/22 01:56:08;;;;;;;2.63;2.13;;;12.00;97.30;;;;;;4976883;28;20502;-90
2021/05/22 01:58:35;;;;;;;2.33;2.00;;;11.90;97.30;;;;;;4978143;28;20420;-90
2021/05/22 02:01:00;;;;;;;3.17;2.10;;;11.90;97.30;;;;;;4978068;28;20526;-89
2021/05/22 02:03:46;;;;;;;2.60;2.10;;;11.90;97.30;;;;;;4977715;28;20469;-90
2021/05/22 02:06:25;;;;;;;3.47;2.10;;;11.90;97.30;;;;;;4977755;28;20588;-90
2021/05/22 02:08:55;;;;;;;2.30;2.10;;;11.90;97.30;;;;;;4977039;28;20448;-90
2021/05/22 02:11:23;;;;;;;4.30;2.27;;;11.90;97.30;;;;;;4975533;28;20447;-90
2021/05/22 02:13:50;;;;;;;4.30;2.00;;;11.90;97.30;;;;;;4975911;28;20417;-90
2021/05/22 02:16:21;;;;;;;2.40;2.00;;;11.90;97.30;;;;;;4975518;28;20943;-90
2021/05/22 02:18:46;;;;;;;4.20;2.17;;;11.90;97.30;;;;;;4975648;28;20700;-90
2021/05/22 02:21:13;;;;;;;3.27;1.83;;;11.90;97.30;;;;;;4975380;28;20527;-90
2021/05/22 02:23:45;;;;;;;2.63;2.10;;;11.90;97.30;;;;;;4975336;28;20185;-90
2021/05/22 02:26:10;;;;;;;3.60;2.07;;;11.90;97.30;;;;;;4975831;28;20421;-90
2021/05/22 02:28:41;;;;;;;3.00;1.87;;;11.90;97.30;;;;;;4977322;28;20799;-90
2021/05/22 02:31:07;;;;;;;3.00;1.97;;;11.90;97.30;;;;;;4977368;28;20205;-91
2021/05/22 02:33:33;;;;;;;5.83;2.10;;;11.90;97.30;;;;;;4975547;28;20425;-90
2021/05/22 02:35:59;;;;;;;4.20;1.80;;;11.80;97.30;;;;;;4992149;28;20417;-89
2021/05/22 02:38:45;;;;;;;3.97;2.60;;;11.80;97.30;;;;;;4992372;28;20431;-90
2021/05/22 02:41:11;;;;;;;3.33;2.10;;;11.80;97.30;;;;;;4993099;28;20429;-90
2021/05/22 02:43:40;;;;;;;4.50;2.27;;;11.70;97.30;;;;;;4994243;28;20435;-89
2021/05/22 02:46:08;;;;;;;3.70;1.70;;;11.70;97.30;;;;;;4977571;28;20186;-89
2021/05/22 02:48:37;;;;;;;3.40;2.30;;;11.70;97.30;;;;;;4978635;28;20413;-89
2021/05/22 02:53:54;;;;;;;3.30;2.27;;;11.70;97.30;;;;;;4978238;28;20419;-90
2021/05/22 02:56:22;;;;;;;2.70;2.50;;;11.70;97.30;;;;;;4977587;28;20417;-90
2021/05/22 02:58:51;;;;;;;2.07;1.80;;;11.60;97.30;;;;;;4977189;28;20520;-90
2021/05/22 03:01:24;;;;;;;3.43;2.13;;;11.60;97.30;;;;;;4976353;28;20452;-91
2021/05/22 03:03:54;;;;;;;2.30;1.90;;;11.60;97.30;;;;;;4975610;28;20467;-90
2021/05/22 03:06:22;;;;;;;2.70;1.80;;;11.60;97.30;;;;;;4974883;28;20568;-91
2021/05/22 03:08:51;;;;;;;2.33;2.00;;;11.60;97.30;;;;;;4975623;28;20843;-91
2021/05/22 03:11:22;;;;;;;3.97;2.13;;;11.60;97.30;;;;;;4976740;28;20440;-90
2021/05/22 03:13:55;;;;;;;2.47;2.20;;;11.50;97.30;;;;;;4976424;28;20512;-91
2021/05/22 03:16:24;;;;;;;3.20;2.10;;;11.50;97.30;;;;;;4975734;28;20923;-91
2021/05/22 03:18:49;;;;;;;3.30;2.10;;;11.50;97.30;;;;;;4975566;28;20796;-91
2021/05/22 03:21:15;;;;;;;2.00;1.80;;;11.50;97.30;;;;;;4974792;28;20497;-91
2021/05/22 03:23:40;;;;;;;2.27;2.10;;;11.50;97.30;;;;;;4976431;28;20181;-90
2021/05/22 03:26:06;;;;;;;3.13;1.77;;;11.50;97.30;;;;;;4976204;28;20177;-91
2021/05/22 03:28:33;;;;;;;2.60;1.90;;;11.50;97.30;;;;;;4976718;28;20296;-91
2021/05/22 03:30:58;;;;;;;3.33;1.90;;;11.50;97.30;;;;;;4976335;28;20480;-91
2021/05/22 03:33:24;;;;;;;3.10;1.70;;;11.60;97.30;;;;;;4976938;28;20205;-90
2021/05/22 03:35:50;;;;;;;2.87;2.00;;;11.50;97.30;;;;;;4975641;28;20181;-89
2021/05/22 03:38:15;;;;;;;6.00;2.17;;;11.60;97.30;;;;;;4976137;28;20680;-90
2021/05/22 03:40:41;;;;;;;2.60;1.47;;;11.60;97.30;;;;;;4975769;28;20289;-90
2021/05/22 03:43:06;;;;;;;3.10;1.80;;;11.60;97.30;;;;;;4975772;28;20598;-89
2021/05/22 03:45:32;;;;;;;4.10;1.90;;;11.60;97.30;;;;;;4993097;28;20192;-88
2021/05/22 03:47:58;;;;;;;3.33;1.80;;;11.70;97.30;;;;;;4993061;28;20680;-90
2021/05/22 03:50:23;;;;;;;2.17;1.90;;;11.70;97.30;;;;;;4992901;28;20247;-90
2021/05/22 03:52:49;;;;;;;2.17;1.83;;;11.80;97.30;;;;;;4975718;28;20260;-89
2021/05/22 03:55:15;;;;;;;2.00;1.50;;;11.80;97.30;;;;;;4976165;28;20185;-90
2021/05/22 03:57:40;;;;;;;3.13;1.70;;;11.80;97.30;;;;;;4976554;28;20182;-90
2021/05/22 04:00:08;;;;;;;2.80;1.60;;;11.90;97.30;;;;;;4976254;28;20201;-90
2021/05/22 04:02:34;;;;;;;1.90;1.73;;;11.90;97.30;;;;;;4976272;28;20268;-90
2021/05/22 04:04:59;;;;;;;5.10;1.53;;;11.90;97.30;;;;;;4976512;28;20573;-90
2021/05/22 04:07:25;;;;;;;4.03;1.73;;;12.00;97.30;;;;;;4976779;28;20216;-89
2021/05/22 04:09:50;;;;;;;1.70;1.60;;;12.00;97.30;;;;;;4994514;28;20265;-88
2021/05/22 04:12:16;;;;;;;5.80;2.20;;;12.00;97.30;;;;;;4977613;28;20220;-90
2021/05/22 04:14:41;;;;;;;2.57;1.63;;;12.00;97.30;;;;;;4977454;28;20497;-89
2021/05/22 04:17:07;;;;;;;3.97;1.90;;;12.10;97.30;;;;;;4977145;28;20205;-90
2021/05/22 04:19:32;;;;;;;2.40;1.70;;;12.10;97.30;;;;;;4977171;28;20201;-92
2021/05/22 04:21:58;;;;;;;4.80;2.07;;;12.00;97.30;;;;;;4975832;23;20227;-87
2021/05/22 04:24:24;;;;;;;2.07;1.40;;;12.00;97.30;;;;;;4956204;29;20187;-88
2021/05/22 04:26:50;;;;;;;3.67;1.67;;;12.00;97.30;;;;;;4956613;29;20340;-86
2021/05/22 04:29:16;;;;;;;4.80;1.80;;;12.00;97.30;;;;;;4958662;29;20179;-88
2021/05/22 04:31:41;;;;;;;8.20;1.80;;;12.00;97.30;;;;;;4956685;29;20427;-86
2021/05/22 04:34:07;;;;;;;3.40;1.87;;;12.00;97.30;;;;;;4956521;29;20186;-87
2021/05/22 04:36:32;;;;;;;2.20;1.67;;;11.90;97.30;;;;;;4956540;29;20187;-87
2021/05/22 04:38:58;;;;;;;3.03;1.57;;;11.90;97.30;;;;;;4957462;29;20186;-87
2021/05/22 04:41:23;;;;;;;2.50;1.50;;;11.80;97.30;;;;;;4957473;29;20286;-87
2021/05/22 04:43:49;;;;;;;3.13;1.60;;;11.80;97.30;;;;;;4958309;29;20187;-87
2021/05/22 04:46:14;;;;;;;2.07;1.40;;;11.70;97.30;;;;;;4957066;29;20187;-86
2021/05/22 04:48:40;;;;;;;3.83;1.40;;;11.70;97.30;;;;;;4957154;29;20171;-87
2021/05/22 04:51:06;;;;;;;5.43;1.97;;;11.60;97.30;;;;;;4957921;29;20215;-88
2021/05/22 04:53:33;;;;;;;2.97;1.70;;;11.60;97.30;;;;;;4958299;29;20175;-87
2021/05/22 04:55:59;;;;;;;3.67;1.60;;;11.50;97.30;;;;;;4958344;29;20423;-87
2021/05/22 04:58:24;;;;;;;2.40;1.40;;;11.40;97.30;;;;;;4958089;29;20422;-87
2021/05/22 05:00:50;;;;;;;2.70;1.50;;;11.40;97.30;;;;;;4955966;29;20199;-86
2021/05/22 05:03:16;;;;;;;3.53;1.90;;;11.30;97.30;;;;;;4957557;28;20230;-88
2021/05/22 05:05:41;;;;;;;3.63;1.67;;;11.30;97.30;;;;;;4956076;29;20171;-87
2021/05/22 05:08:07;;;;;;;4.13;1.67;;;11.30;97.30;;;;;;4956132;29;20666;-88
2021/05/22 05:10:32;;;;;;;6.13;2.10;;;11.20;97.30;;;;;;4957642;29;20608;-87
2021/05/22 05:22:30;;;;;;;2.90;1.70;;;11.20;97.30;;;;;;4978492;23;20512;-71
2021/05/22 05:25:19;;;;;;;;;;;;;;;;;;;;;
2021/05/22 05:27:52;;;;;;;4.80;1.70;;;11.20;97.30;;;;;;4952379;28;20572;-71
2021/05/22 05:30:46;;;;;;;2.50;1.57;;;11.20;97.30;;;;;;4955452;28;20941;-71
2021/05/22 05:33:27;;;;;;;3.97;1.50;;;11.20;97.30;;;;;;4950425;28;20433;-71
2021/05/22 05:36:04;;;;;;;3.90;1.70;;;11.20;97.30;;;;;;4937407;28;20833;-70
2021/05/22 05:38:58;;;;;;;4.90;1.40;;;11.20;97.30;;;;;;4972959;28;20421;-71
2021/05/22 05:41:33;;;;;;;8.70;1.80;;;11.30;97.30;;;;;;4955138;28;20449;-71
2021/05/22 05:44:02;;;;;;;2.50;1.63;;;11.30;97.30;;;;;;4955665;28;20426;-71
2021/05/22 05:46:37;;;;;;;3.50;1.50;;;11.30;97.30;;;;;;4967346;28;20449;-71
2021/05/22 05:49:12;;;;;;;1.87;1.40;;;11.40;97.30;;;;;;4972278;28;20485;-71
2021/05/22 05:51:45;;;;;;;1.80;1.47;;;11.30;97.30;;;;;;4955498;28;20437;-72
2021/05/22 05:54:23;;;;;;;3.63;1.70;;;11.40;97.30;;;;;;4936913;29;20430;-72
2021/05/22 05:56:56;;;;;;;5.80;1.77;;;11.40;97.30;;;;;;4950628;28;20999;-71
2021/05/22 05:59:49;;;;;;;2.43;1.80;;;11.40;97.30;;;;;;4953154;28;20430;-71
2021/05/22 06:02:43;;;;;;;5.70;1.70;;;11.40;97.30;;;;;;4976867;28;20437;-71
2021/05/22 06:05:35;;;;;;;2.20;1.30;;;11.50;97.30;;;;;;4966674;28;20492;-72
2021/05/22 06:08:03;;;;;;;2.63;1.50;;;11.60;97.30;;;;;;4972353;28;20461;-71
2021/05/22 06:10:28;;;;;;;2.30;1.50;;;11.70;97.30;;;;;;4972496;28;20446;-74
2021/05/22 06:12:56;;;;;;;4.40;1.50;;;11.80;97.30;;;;;;4954744;28;20468;-71
2021/05/22 06:15:24;;;;;;;3.40;1.70;;;12.00;97.30;;;;;;4952558;28;20177;-71
2021/05/22 06:17:53;;;;;;;1.50;1.40;;;12.10;97.30;;;;;;4954154;28;20434;-72
2021/05/22 06:20:19;;;;;;;1.97;1.53;;;12.20;96.30;;;;;;4971750;28;20828;-71
2021/05/22 06:22:45;;;;;;;3.40;1.70;;;12.30;96.60;;;;;;4971657;28;20414;-72
2021/05/22 06:25:12;;;;;;;1.93;1.30;;;12.30;95.70;;;;;;4954517;28;20417;-75
2021/05/22 06:27:38;;;;;;;3.30;1.70;;;12.40;96.10;;;;;;4954035;28;20457;-72
2021/05/22 06:30:07;;;;;;;2.13;1.50;;;12.40;95.30;;;;;;4972268;28;20820;-72
2021/05/22 06:32:32;;;;;;;3.70;1.57;;;12.50;95.10;;;;;;4953875;28;20878;-71
2021/05/22 06:34:58;;;;;;;4.97;1.90;;;12.60;94.80;;;;;;4953869;28;20493;-72
2021/05/22 06:37:25;;;;;;;4.20;1.87;;;12.70;95.00;;;;;;4954527;28;20178;-72
2021/05/22 06:39:51;;;;;;;2.70;1.50;;;12.60;94.00;;;;;;4971510;28;20599;-72
2021/05/22 06:42:17;;;;;;;3.40;1.50;;;12.70;94.80;;;;;;4971395;28;20425;-72
2021/05/22 06:44:51;;;;;;;2.23;1.50;;;12.80;94.40;;;;;;4968170;28;20410;-73
2021/05/22 06:47:17;;;;;;;3.73;1.33;;;12.90;93.80;;;;;;4954125;28;20476;-71
2021/05/22 06:49:42;;;;;;;2.47;1.83;;;12.90;93.80;;;;;;4953634;28;20933;-73
2021/05/22 06:52:08;;;;;;;3.83;1.53;;;13.00;94.30;;;;;;4953835;28;20205;-72
2021/05/22 06:54:34;;;;;;;3.60;1.73;;;13.00;93.60;;;;;;4971264;28;21062;-71
2021/05/22 06:57:00;;;;;;;5.67;1.63;;;13.00;93.80;;;;;;4953544;28;20181;-71
2021/05/22 06:59:26;;;;;;;2.97;1.50;;;13.10;94.00;;;;;;4971667;28;20761;-71
2021/05/22 07:01:52;;;;;;;4.00;1.50;;;13.20;94.30;;;;;;4953415;28;20438;-72
2021/05/22 07:04:17;;;;;;;4.83;1.80;;;13.30;93.30;;;;;;4953962;28;21076;-72
2021/05/22 07:06:43;;;;;;;8.77;1.97;;;13.30;93.30;;;;;;4971352;28;20213;-73
2021/05/22 07:09:09;;;;;;;4.40;1.30;;;13.40;93.50;;;;;;4953886;28;20167;-74
2021/05/22 07:11:35;;;;;;;3.60;1.73;;;13.50;93.00;;;;;;4953667;28;20462;-72
2021/05/22 07:14:01;;;;;;;3.27;1.67;;;13.60;92.80;;;;;;4949124;28;20277;-77
2021/05/22 07:16:27;;;;;;;6.80;1.70;;;13.80;93.10;;;;;;4953637;28;20436;-72
2021/05/22 07:18:54;;;;;;;3.33;1.43;;;13.80;92.90;;;;;;4954814;28;20414;-74
2021/05/22 07:21:20;;;;;;;2.90;1.73;;;13.90;92.40;;;;;;4972509;28;20261;-73
2021/05/22 07:23:45;;;;;;;3.30;1.77;;;13.70;92.00;;;;;;4954169;28;20422;-72
2021/05/22 07:26:11;;;;;;;2.80;1.50;;;13.60;92.30;;;;;;4951769;28;20436;-74
2021/05/22 07:28:37;;;;;;;2.50;1.50;;;13.50;91.60;;;;;;4954185;28;20178;-72
2021/05/22 07:31:03;;;;;;;7.90;1.70;;;13.50;92.00;;;;;;4953144;28;20202;-74
2021/05/22 07:33:34;;;;;;;2.30;1.27;;;13.50;92.40;;;;;;4954023;28;20171;-74
2021/05/22 07:35:59;;;;;;;2.37;1.60;;;13.60;93.10;;;;;;4953747;28;20270;-73
2021/05/22 07:38:25;;;;;;;5.77;2.10;;;13.60;91.90;;;;;;4953325;28;20849;-74
2021/05/22 07:40:51;;;;;;;6.00;1.70;;;13.70;92.50;;;;;;4954438;28;20202;-73
2021/05/22 07:43:20;;;;;;;3.67;1.47;;;13.80;91.30;;;;;;4954210;28;20187;-74
2021/05/22 07:45:46;;;;;;;5.47;1.60;;;14.00;91.40;;;;;;4954229;28;20210;-73
2021/05/22 07:48:13;;;;;;;3.77;2.07;;;14.00;91.60;;;;;;4971853;28;20808;-76
2021/05/22 07:50:39;;;;;;;2.60;1.60;;;14.10;91.00;;;;;;4953704;28;20453;-73
2021/05/22 07:53:04;;;;;;;2.67;1.30;;;14.20;89.00;;;;;;4954173;28;20418;-72
2021/05/22 07:55:30;;;;;;;3.90;1.47;;;14.40;88.80;;;;;;4956676;28;20182;-73
2021/05/22 07:57:56;;;;;;;4.43;1.60;;;14.60;87.90;;;;;;4973786;28;20260;-74
2021/05/22 08:00:22;;;;;;;3.27;1.57;;;14.70;86.10;;;;;;4956897;28;20182;-75
2021/05/22 08:02:48;;;;;;;2.13;1.33;;;14.60;86.40;;;;;;4974915;28;20457;-73
2021/05/22 08:05:14;;;;;;;2.37;1.30;;;14.50;87.20;;;;;;4957864;28;20864;-73
2021/05/22 08:07:40;;;;;;;2.20;1.50;;;14.70;87.20;;;;;;4957890;28;20221;-73
2021/05/22 08:10:07;;;;;;;2.17;1.33;;;14.80;87.70;;;;;;4957900;28;20941;-73
2021/05/22 08:12:33;;;;;;;2.07;1.57;;;14.80;86.70;;;;;;4955928;28;20449;-75
2021/05/22 08:14:59;;;;;;;3.87;1.50;;;14.80;87.70;;;;;;4968710;28;20446;-74
2021/05/22 08:17:25;;;;;;;1.80;1.70;;;15.00;86.70;;;;;;4974306;28;20262;-71
2021/05/22 08:19:51;;;;;;;3.87;1.80;;;15.10;86.20;;;;;;4975244;28;20374;-72
2021/05/22 08:22:16;;;;;;;2.50;1.50;;;15.10;84.60;;;;;;4955554;28;20484;-73
2021/05/22 08:24:42;;;;;;;2.17;1.40;;;14.90;85.00;;;;;;4949398;28;20684;-74
2021/05/22 08:27:08;;;;;;;4.93;1.60;;;14.80;85.80;;;;;;4973086;28;20213;-74
2021/05/22 08:29:33;;;;;;;3.00;1.80;;;14.60;85.90;;;;;;4973207;28;20197;-72
2021/05/22 08:31:59;;;;;;;2.17;1.57;;;14.50;86.30;;;;;;4973542;28;20560;-72
2021/05/22 08:34:26;;;;;;;4.30;1.80;;;14.60;86.60;;;;;;4956170;28;20202;-72
2021/05/22 08:36:52;;;;;;;3.27;1.50;;;14.70;85.70;;;;;;4973235;28;20190;-74
2021/05/22 08:39:17;;;;;;;3.77;1.57;;;14.80;85.70;;;;;;4957045;28;20429;-73
2021/05/22 08:41:44;;;;;;;2.13;1.40;;;14.90;83.50;;;;;;4956366;28;20198;-73
2021/05/22 08:44:10;;;;;;;4.17;1.63;;;14.90;83.00;;;;;;4957132;28;20187;-73
2021/05/22 08:46:36;;;;;;;4.10;1.73;;;14.90;84.00;;;;;;4974972;28;20460;-72
2021/05/22 08:49:02;;;;;;;2.80;1.60;;;14.90;85.20;;;;;;4957217;28;20716;-74
2021/05/22 08:51:28;;;;;;;4.87;1.60;;;15.00;84.40;;;;;;4972198;28;20229;-74
2021/05/22 08:53:53;;;;;;;4.90;1.90;;;14.90;83.40;;;;;;4955905;28;20843;-72
2021/05/22 08:56:20;;;;;;;3.67;1.87;;;14.80;83.20;;;;;;4956747;28;20500;-72
2021/05/22 08:58:46;;;;;;;4.60;2.20;;;14.70;83.40;;;;;;4974475;28;20202;-74
2021/05/22 09:01:11;;;;;;;6.10;2.33;;;14.60;84.30;;;;;;4974359;28;20958;-73
2021/05/22 09:03:38;;;;;;;4.60;1.60;;;14.90;84.90;;;;;;4974287;28;20187;-71
2021/05/22 09:06:04;;;;;;;4.00;1.63;;;15.10;82.90;;;;;;4973953;28;20197;-74
2021/05/22 09:08:32;;;;;;;7.07;1.67;;;15.10;82.40;;;;;;4957682;28;20835;-72
2021/05/22 09:11:02;;;;;;;3.03;1.60;;;15.00;81.20;;;;;;4957154;28;20524;-74
2021/05/22 09:13:30;;;;;;;4.27;1.90;;;14.90;81.60;;;;;;4974555;28;20509;-72
2021/05/22 09:16:14;;;;;;;4.87;2.13;;;14.70;82.20;;;;;;4956857;28;20419;-74
2021/05/22 09:18:44;;;;;;;4.87;1.60;;;14.70;83.30;;;;;;4949573;28;20828;-72
2021/05/22 09:21:11;;;;;;;5.30;2.00;;;14.80;83.60;;;;;;4956152;28;20485;-72
2021/05/22 09:23:40;;;;;;;3.83;1.80;;;15.10;84.70;;;;;;4956158;28;20512;-73
2021/05/22 09:26:13;;;;;;;2.17;1.60;;;15.50;83.50;;;;;;4956424;28;20429;-74
2021/05/22 09:28:48;;;;;;;4.53;1.80;;;15.60;81.90;;;;;;4956022;28;20453;-74
2021/05/22 09:31:19;;;;;;;5.70;1.97;;;15.50;80.20;;;;;;4957086;28;20816;-72
2021/05/22 09:33:46;;;;;;;9.93;1.77;;;15.40;80.50;;;;;;4956686;28;21163;-75
2021/05/22 09:36:13;;;;;;;5.70;1.73;;;15.30;81.30;;;;;;4955029;28;20415;-74
2021/05/22 09:38:50;;;;;;;2.37;1.30;;;15.20;80.90;;;;;;4950704;28;20524;-74
2021/05/22 09:41:33;;;;;;;5.73;1.90;;;15.50;81.70;;;;;;4954607;28;20478;-74
2021/05/22 09:44:06;;;;;;;6.30;1.80;;;15.80;79.90;;;;;;4953103;28;20508;-74
2021/05/22 09:46:33;;;;;;;4.57;1.70;;;16.00;78.70;;;;;;4974080;28;20453;-73
2021/05/22 09:49:04;;;;;;;7.33;2.20;;;16.10;80.20;;;;;;4974162;28;20406;-73
2021/05/22 09:51:29;;;;;;;3.10;1.80;;;15.90;78.80;;;;;;4968350;28;20444;-75
2021/05/22 09:53:55;;;;;;;3.97;2.23;;;15.90;79.30;;;;;;4951335;28;20426;-73
2021/05/22 09:56:25;;;;;;;5.27;2.10;;;16.00;80.00;;;;;;4972738;28;20721;-73
2021/05/22 09:58:56;;;;;;;7.87;1.77;;;16.00;80.20;;;;;;4952096;28;20209;-75
2021/05/22 10:01:40;;;;;;;4.87;1.90;;;15.80;79.60;;;;;;4954571;28;20446;-74
2021/05/22 10:04:16;;;;;;;6.77;1.60;;;15.60;80.30;;;;;;4954383;28;20480;-74
2021/05/22 10:06:42;;;;;;;5.90;1.60;;;15.60;81.60;;;;;;4954649;28;20536;-74
2021/05/22 10:09:13;;;;;;;3.00;1.80;;;15.80;79.60;;;;;;4954904;28;20425;-74
2021/05/22 10:12:04;;;;;;;3.73;1.80;;;16.00;78.40;;;;;;4954892;28;20434;-74
2021/05/22 10:14:43;;;;;;;3.77;1.37;;;16.00;77.20;;;;;;4970176;28;20421;-74
2021/05/22 10:17:11;;;;;;;7.30;1.93;;;15.90;77.90;;;;;;4952333;28;20462;-74
2021/05/22 10:19:38;;;;;;;4.53;1.73;;;15.80;78.20;;;;;;4954640;28;20413;-74
2021/05/22 10:22:06;;;;;;;3.93;1.97;;;16.00;78.70;;;;;;4971152;28;20474;-74
2021/05/22 10:24:31;;;;;;;3.47;1.70;;;16.10;78.60;;;;;;4954670;28;20672;-74
2021/05/22 10:26:58;;;;;;;7.20;1.93;;;16.30;77.20;;;;;;4952672;28;20493;-75
2021/05/22 10:29:24;;;;;;;5.40;1.70;;;16.30;76.90;;;;;;4971375;28;20237;-75
2021/05/22 10:31:51;;;;;;;2.53;1.40;;;16.20;76.70;;;;;;4956162;28;20446;-74
2021/05/22 10:34:22;;;;;;;4.30;1.90;;;16.10;77.40;;;;;;4954708;28;20422;-74
2021/05/22 10:36:50;;;;;;;2.13;1.53;;;16.00;78.00;;;;;;4955101;28;20422;-74
2021/05/22 10:39:40;;;;;;;6.50;2.30;;;16.00;77.80;;;;;;4955334;28;20418;-73
2021/05/22 10:42:08;;;;;;;3.73;1.60;;;15.90;78.20;;;;;;4955530;28;20791;-76
2021/05/22 10:44:38;;;;;;;4.27;1.40;;;15.70;77.00;;;;;;4954988;28;20415;-74
2021/05/22 10:47:16;;;;;;;3.40;1.60;;;15.60;77.90;;;;;;4971995;28;20465;-75
2021/05/22 10:49:52;;;;;;;2.20;1.47;;;15.40;78.00;;;;;;4972771;28;20437;-75
2021/05/22 10:52:32;;;;;;;2.83;1.80;;;15.30;78.60;;;;;;4955312;28;20454;-75
2021/05/22 10:55:13;;;;;;;3.30;2.00;;;15.20;79.60;;;;;;4954975;28;20418;-74
2021/05/22 10:57:42;;;;;;;2.10;1.30;;;15.10;80.20;;;;;;4955256;28;20952;-74
2021/05/22 11:00:14;;;;;;;10.53;2.17;;;15.20;79.90;;;;;;4955136;28;20433;-73
2021/05/22 11:02:42;;;;;;;4.90;1.50;;;15.30;80.00;;;;;;4972574;28;20418;-73
2021/05/22 11:05:24;;;;;;;8.00;1.77;;;15.40;81.00;;;;;;4942746;28;20438;-74
2021/05/22 11:08:13;;;;;;;3.63;1.63;;;15.60;79.60;;;;;;4955091;28;20476;-76
2021/05/22 11:10:41;;;;;;;4.57;1.60;;;15.50;78.80;;;;;;4971825;28;20949;-74
2021/05/22 11:13:20;;;;;;;4.63;1.83;;;15.40;79.60;;;;;;4954926;28;20944;-75
2021/05/22 11:15:51;;;;;;;3.00;1.57;;;15.60;79.70;;;;;;4954424;28;20438;-73
2021/05/22 11:18:47;;;;;;;3.40;1.30;;;16.00;79.60;;;;;;4971744;28;20425;-74
2021/05/22 11:21:20;;;;;;;4.43;1.57;;;16.40;78.10;;;;;;4954382;28;20478;-73
2021/05/22 11:23:58;;;;;;;3.33;1.70;;;16.50;77.40;;;;;;4971647;28;20436;-73
2021/05/22 11:26:43;;;;;;;3.00;1.60;;;16.40;77.60;;;;;;4962296;28;20445;-76
2021/05/22 11:29:08;;;;;;;4.77;1.70;;;16.50;77.70;;;;;;4971353;28;20850;-76
2021/05/22 11:31:34;;;;;;;8.10;1.47;;;16.50;78.10;;;;;;4971067;28;20421;-74
2021/05/22 11:34:22;;;;;;;2.23;1.20;;;16.50;79.00;;;;;;4971593;28;20225;-73
2021/05/22 11:37:10;;;;;;;6.63;1.50;;;16.70;78.10;;;;;;4954190;28;20532;-74
2021/05/22 11:39:43;;;;;;;3.93;1.57;;;16.80;77.80;;;;;;4954439;28;20505;-76
2021/05/22 11:42:28;;;;;;;5.43;1.40;;;16.90;77.60;;;;;;4954339;28;20441;-75
2021/05/22 11:44:58;;;;;;;3.83;1.90;;;16.80;77.10;;;;;;4971808;28;20445;-74
2021/05/22 11:47:33;;;;;;;7.10;2.27;;;17.00;78.00;;;;;;4953955;28;20519;-73
2021/05/22 11:50:00;;;;;;;6.17;1.57;;;17.20;78.30;;;;;;4935243;29;20463;-75
2021/05/22 11:52:30;;;;;;;2.50;1.83;;;17.40;77.40;;;;;;4959339;28;20811;-74
2021/05/22 11:54:56;;;;;;;6.03;1.60;;;17.60;76.10;;;;;;4954019;28;20430;-74
2021/05/22 11:57:22;;;;;;;6.50;2.17;;;17.70;76.10;;;;;;4967542;28;20426;-76
2021/05/22 11:59:48;;;;;;;3.63;1.60;;;17.50;77.00;;;;;;4953796;28;20941;-75
2021/05/22 12:02:14;;;;;;;6.40;1.50;;;17.30;76.70;;;;;;4954134;28;20199;-74
2021/05/22 12:04:52;;;;;;;4.00;1.73;;;17.20;77.50;;;;;;4954041;28;20678;-74
2021/05/22 12:07:17;;;;;;;4.30;1.60;;;17.00;77.40;;;;;;4971315;28;20740;-74
2021/05/22 12:09:43;;;;;;;6.97;1.60;;;16.80;78.30;;;;;;4954307;28;20415;-73
2021/05/22 12:12:10;;;;;;;6.00;1.30;;;16.60;78.90;;;;;;4954234;28;20198;-73
2021/05/22 12:14:40;;;;;;;4.53;1.20;;;16.40;78.40;;;;;;4952757;28;20220;-73
2021/05/22 12:17:06;;;;;;;3.40;1.53;;;16.30;79.50;;;;;;4952927;28;20480;-75
2021/05/22 12:19:37;;;;;;;4.73;1.40;;;16.40;79.70;;;;;;4953922;28;21032;-75
2021/05/22 12:22:04;;;;;;;5.10;1.70;;;16.50;79.30;;;;;;4952577;28;20531;-74
2021/05/22 12:24:30;;;;;;;4.70;1.50;;;16.80;79.40;;;;;;4970293;28;20426;-74
2021/05/22 12:26:56;;;;;;;3.87;1.70;;;17.20;79.10;;;;;;4949987;28;20477;-75
2021/05/22 12:29:24;;;;;;;3.90;1.70;;;17.50;78.70;;;;;;4950033;28;20437;-75
2021/05/22 12:31:56;;;;;;;2.83;1.60;;;17.70;78.50;;;;;;4953089;28;20800;-75
2021/05/22 12:34:34;;;;;;;2.10;1.50;;;17.70;77.30;;;;;;4970015;28;20480;-73
2021/05/22 12:37:00;;;;;;;2.43;1.63;;;17.40;78.10;;;;;;4952907;28;20850;-76
2021/05/22 12:39:31;;;;;;;5.43;1.60;;;17.20;78.60;;;;;;4953065;28;20433;-75
2021/05/22 12:41:57;;;;;;;4.10;1.50;;;17.20;78.60;;;;;;4956364;28;20451;-73
2021/05/22 12:44:23;;;;;;;3.03;1.33;;;17.10;79.10;;;;;;4974763;28;20509;-74
2021/05/22 12:46:59;;;;;;;2.60;1.40;;;17.00;78.60;;;;;;4957123;28;20632;-74
2021/05/22 12:49:32;;;;;;;2.83;1.33;;;17.10;77.90;;;;;;4956676;28;20516;-74
2021/05/22 12:52:10;;;;;;;1.43;1.30;;;17.20;77.60;;;;;;4973675;28;20445;-76
2021/05/22 12:54:35;;;;;;;2.80;1.47;;;17.10;77.80;;;;;;4956943;28;20619;-75
2021/05/22 12:57:04;;;;;;;3.47;1.63;;;17.10;79.20;;;;;;4953507;28;20776;-78
2021/05/22 12:59:31;;;;;;;3.20;1.60;;;16.90;78.40;;;;;;4953551;28;20179;-74
2021/05/22 13:02:25;;;;;;;2.93;1.87;;;16.70;78.70;;;;;;4956435;28;20540;-74
2021/05/22 13:04:52;;;;;;;5.50;1.40;;;16.80;78.70;;;;;;4949934;28;20446;-74
2021/05/22 13:07:21;;;;;;;2.87;1.40;;;16.80;78.60;;;;;;4948637;28;20807;-75
2021/05/22 13:10:13;;;;;;;5.27;1.30;;;16.70;78.00;;;;;;4955082;28;20459;-76